createdAt,value
2019-04-03T00:01:52.866Z,53.33
2019-04-03T00:04:24.828Z,53.00
2019-04-03T00:06:56.816Z,41.93
2019-04-03T00:09:28.754Z,40.10
2019-04-03T00:12:01.172Z,48.37
2019-04-03T00:14:33.182Z,43.13
2019-04-03T00:17:05.250Z,43.67
2019-04-03T00:19:37.303Z,46.57
2019-04-03T00:22:10.400Z,47.60
2019-04-03T00:24:42.452Z,43.00
2019-04-03T00:27:15.409Z,48.87
2019-04-03T00:29:47.597Z,41.27
2019-04-03T00:32:19.544Z,47.07
2019-04-03T00:34:53.371Z,47.43
2019-04-03T00:37:25.410Z,47.87
2019-04-03T00:39:57.520Z,45.23
2019-04-03T00:42:29.484Z,47.30
2019-04-03T00:45:01.560Z,49.90
2019-04-03T00:47:33.490Z,46.50
2019-04-03T00:50:06.287Z,48.67
2019-04-03T00:52:38.350Z,46.90
2019-04-03T00:55:10.888Z,44.97
2019-04-03T00:57:42.843Z,47.90
2019-04-03T01:00:17.581Z,46.77
2019-04-03T01:02:49.545Z,46.10
2019-04-03T01:05:21.713Z,46.87
2019-04-03T01:07:53.723Z,50.77
2019-04-03T01:10:25.702Z,47.47
2019-04-03T01:12:57.660Z,47.17
2019-04-03T01:15:31.181Z,41.53
2019-04-03T01:18:05.126Z,44.50
2019-04-03T01:20:37.224Z,43.00
2019-04-03T01:23:10.324Z,42.10
2019-04-03T01:25:42.600Z,47.10
2019-04-03T01:28:14.652Z,43.93
2019-04-03T01:30:46.831Z,45.53
2019-04-03T01:33:18.751Z,45.43
2019-04-03T01:35:51.062Z,45.80
2019-04-03T01:38:22.995Z,49.23
2019-04-03T01:40:54.955Z,46.53
2019-04-03T01:43:26.910Z,49.77
2019-04-03T01:45:58.915Z,48.27
2019-04-03T01:48:30.848Z,51.87
2019-04-03T01:51:02.851Z,47.37
2019-04-03T01:53:34.796Z,48.03
2019-04-03T01:56:06.832Z,50.23
2019-04-03T01:58:41.278Z,52.87
2019-04-03T02:01:13.245Z,54.37
2019-04-03T02:03:45.164Z,52.87
2019-04-03T02:06:17.166Z,54.30
2019-04-03T02:08:49.202Z,57.07
2019-04-03T02:11:21.123Z,52.57
2019-04-03T02:13:53.078Z,48.63
2019-04-03T02:16:24.992Z,55.20
2019-04-03T02:18:57.043Z,54.67
2019-04-03T02:21:29.134Z,53.40
2019-04-03T02:24:01.790Z,53.63
2019-04-03T02:26:33.871Z,51.13
2019-04-03T02:29:08.199Z,58.47
2019-04-03T02:31:39.709Z,49.37
2019-04-03T02:34:12.093Z,50.17
2019-04-03T02:36:45.420Z,55.37
2019-04-03T02:39:17.663Z,57.27
2019-04-03T02:41:49.992Z,60.50
2019-04-03T02:44:22.020Z,56.10
2019-04-03T02:46:54.306Z,57.97
2019-04-03T02:49:26.454Z,55.57
2019-04-03T02:51:58.736Z,61.37
2019-04-03T02:54:35.769Z,50.90
2019-04-03T02:57:07.081Z,59.53
2019-04-03T02:59:39.330Z,51.90
2019-04-03T03:02:12.515Z,58.27
2019-04-03T03:04:45.013Z,58.23
2019-04-03T03:07:17.181Z,55.40
2019-04-03T03:09:49.321Z,57.67
2019-04-03T03:12:21.578Z,55.40
2019-04-03T03:14:53.901Z,58.60
2019-04-03T03:17:26.345Z,59.93
2019-04-03T03:20:00.268Z,63.37
2019-04-03T03:22:32.331Z,57.20
2019-04-03T03:25:04.992Z,65.07
2019-04-03T03:27:40.756Z,63.30
2019-04-03T03:30:33.195Z,59.53
2019-04-03T03:32:46.980Z,53.33
2019-04-03T03:35:27.886Z,59.70
2019-04-03T03:37:53.087Z,67.13
2019-04-03T03:40:25.058Z,59.70
2019-04-03T03:42:57.359Z,58.80
2019-04-03T03:45:32.130Z,60.20
2019-04-03T03:48:08.206Z,65.13
2019-04-03T03:50:39.115Z,64.90
2019-04-03T03:53:12.708Z,68.03
2019-04-03T03:55:47.013Z,62.03
2019-04-03T03:58:20.178Z,61.93
2019-04-03T04:00:53.222Z,67.90
2019-04-03T04:03:25.981Z,58.23
2019-04-03T04:05:58.238Z,61.23
2019-04-03T04:08:31.709Z,66.27
2019-04-03T04:11:04.520Z,55.90
2019-04-03T04:13:39.174Z,61.13
2019-04-03T04:16:11.254Z,59.30
2019-04-03T04:18:43.303Z,56.20
2019-04-03T04:21:16.631Z,58.13
2019-04-03T04:23:48.897Z,60.20
2019-04-03T04:26:22.762Z,68.93
2019-04-03T04:28:55.249Z,67.37
2019-04-03T04:31:27.217Z,65.30
2019-04-03T04:33:59.692Z,60.60
2019-04-03T04:36:31.664Z,61.23
2019-04-03T04:39:05.444Z,67.63
2019-04-03T04:41:37.580Z,56.23
2019-04-03T04:44:10.288Z,66.13
2019-04-03T04:46:44.573Z,62.00
2019-04-03T04:49:16.313Z,75.60
2019-04-03T04:51:48.259Z,65.43
2019-04-03T04:54:20.281Z,64.33
2019-04-03T04:56:52.960Z,65.30
2019-04-03T04:59:25.332Z,71.10
2019-04-03T05:01:57.306Z,78.77
2019-04-03T05:04:29.331Z,78.43
2019-04-03T05:07:01.683Z,69.13
2019-04-03T05:09:34.800Z,78.20
2019-04-03T05:12:09.447Z,64.37
2019-04-03T05:14:41.215Z,69.10
2019-04-03T05:17:13.196Z,62.13
2019-04-03T05:19:45.178Z,60.60
2019-04-03T05:22:17.138Z,64.27
2019-04-03T05:24:49.109Z,63.60
2019-04-03T05:27:21.073Z,72.27
2019-04-03T05:29:53.035Z,58.13
2019-04-03T05:32:25.089Z,67.73
2019-04-03T05:34:57.238Z,63.03
2019-04-03T05:37:29.853Z,63.47
2019-04-03T05:40:01.862Z,56.17
2019-04-03T05:42:34.218Z,65.47
2019-04-03T05:45:06.995Z,58.93
2019-04-03T05:47:39.876Z,57.83
2019-04-03T05:50:12.034Z,56.33
2019-04-03T05:52:44.164Z,57.03
2019-04-03T05:55:16.709Z,67.63
2019-04-03T05:57:48.938Z,58.27
2019-04-03T06:00:21.539Z,55.97
2019-04-03T06:02:54.706Z,57.83
2019-04-03T06:05:29.022Z,51.87
2019-04-03T06:08:01.219Z,62.03
2019-04-03T06:10:36.591Z,59.43
2019-04-03T06:13:06.984Z,53.43
2019-04-03T06:15:40.599Z,51.53
2019-04-03T06:18:12.702Z,51.50
2019-04-03T06:20:45.914Z,53.97
2019-04-03T06:23:20.974Z,52.43
2019-04-03T06:25:51.724Z,49.03
2019-04-03T06:28:23.910Z,52.77
2019-04-03T06:30:56.726Z,50.00
2019-04-03T06:33:31.433Z,47.00
2019-04-03T06:36:03.176Z,54.83
2019-04-03T06:38:36.268Z,48.03
2019-04-03T06:41:09.097Z,47.03
2019-04-03T06:43:41.455Z,52.40
2019-04-03T06:46:15.832Z,46.27
2019-04-03T06:48:47.863Z,47.90
2019-04-03T06:51:20.149Z,44.23
2019-04-03T06:53:52.237Z,50.60
2019-04-03T06:56:25.747Z,49.17
2019-04-03T06:58:57.971Z,48.07
2019-04-03T07:01:30.618Z,45.80
2019-04-03T07:04:02.723Z,51.73
2019-04-03T07:06:34.730Z,47.33
2019-04-03T07:09:21.215Z,48.00
2019-04-03T07:11:43.528Z,42.37
2019-04-03T07:14:17.315Z,44.33
2019-04-03T07:16:49.292Z,43.17
2019-04-03T07:19:21.272Z,42.43
2019-04-03T07:21:55.180Z,37.00
2019-04-03T07:24:26.942Z,37.40
2019-04-03T07:26:58.950Z,35.50
2019-04-03T07:29:30.934Z,35.87
2019-04-03T07:32:03.110Z,35.97
2019-04-03T07:34:35.481Z,36.03
2019-04-03T07:37:07.684Z,33.42
2019-04-03T07:39:39.915Z,38.33
2019-04-03T07:42:11.927Z,33.63
2019-04-03T07:44:44.135Z,27.93
2019-04-03T07:47:16.201Z,27.45
2019-04-03T07:49:48.301Z,28.10
2019-04-03T07:52:20.535Z,26.70
2019-04-03T07:54:53.097Z,23.80
2019-04-03T07:57:26.878Z,27.13
2019-04-03T07:59:59.966Z,23.87
2019-04-03T08:02:33.706Z,24.43
2019-04-03T08:05:07.007Z,25.07
2019-04-03T08:07:38.999Z,22.43
2019-04-03T08:10:11.334Z,24.27
2019-04-03T08:12:43.334Z,29.33
2019-04-03T08:15:15.438Z,28.02
2019-04-03T08:17:47.831Z,33.13
2019-04-03T08:20:21.194Z,23.05
2019-04-03T08:22:53.178Z,21.05
2019-04-03T08:25:25.273Z,24.27
2019-04-03T08:27:57.274Z,23.65
2019-04-03T08:30:29.422Z,26.55
2019-04-03T08:33:15.232Z,21.42
2019-04-03T08:35:37.766Z,20.32
2019-04-03T08:38:12.413Z,25.57
2019-04-03T08:40:43.593Z,25.95
2019-04-03T08:43:17.393Z,28.65
2019-04-03T08:45:51.303Z,20.10
2019-04-03T08:48:23.486Z,22.93
2019-04-03T08:50:57.808Z,21.65
2019-04-03T08:53:29.368Z,21.50
2019-04-03T08:56:01.517Z,23.95
2019-04-03T08:58:33.729Z,19.65
2019-04-03T09:01:05.991Z,19.35
2019-04-03T09:03:37.976Z,19.67
2019-04-03T09:06:10.255Z,19.95
2019-04-03T09:08:42.217Z,22.17
2019-04-03T09:11:14.171Z,18.90
2019-04-03T09:13:46.162Z,23.73
2019-04-03T09:16:18.239Z,22.00
2019-04-03T09:18:50.252Z,22.65
2019-04-03T09:21:22.251Z,21.65
2019-04-03T09:23:57.883Z,23.45
2019-04-03T09:26:33.005Z,21.23
2019-04-03T09:29:04.485Z,19.77
2019-04-03T09:31:36.509Z,19.37
2019-04-03T09:34:08.473Z,19.23
2019-04-03T09:36:40.730Z,23.05
2019-04-03T09:39:14.543Z,22.52
2019-04-03T09:41:46.842Z,19.95
2019-04-03T09:44:18.796Z,23.75
2019-04-03T09:46:50.819Z,20.85
2019-04-03T09:49:22.880Z,22.48
2019-04-03T09:51:54.947Z,18.30
2019-04-03T09:54:28.613Z,22.20
2019-04-03T09:57:04.586Z,21.82
2019-04-03T09:59:37.413Z,16.77
2019-04-03T10:02:09.244Z,24.20
2019-04-03T10:04:41.462Z,22.32
2019-04-03T10:07:13.486Z,19.95
2019-04-03T10:09:45.522Z,18.70
2019-04-03T10:12:17.532Z,22.62
2019-04-03T10:14:49.829Z,19.95
2019-04-03T10:17:22.198Z,19.27
2019-04-03T10:19:54.450Z,19.10
2019-04-03T10:22:26.736Z,17.45
2019-04-03T10:25:00.554Z,20.60
2019-04-03T10:27:32.546Z,17.98
2019-04-03T10:30:06.420Z,20.43
2019-04-03T10:32:38.506Z,21.05
2019-04-03T10:35:11.154Z,22.10
2019-04-03T10:37:46.377Z,17.70
2019-04-03T10:40:18.834Z,18.73
2019-04-03T10:42:51.533Z,17.82
2019-04-03T10:45:23.717Z,20.70
2019-04-03T10:47:56.707Z,18.92
2019-04-03T10:50:29.059Z,21.65
2019-04-03T10:53:01.165Z,23.07
2019-04-03T10:55:33.143Z,20.55
2019-04-03T10:58:07.701Z,22.13
2019-04-03T11:00:39.216Z,20.55
2019-04-03T11:03:11.561Z,21.62
2019-04-03T11:05:43.706Z,20.17
2019-04-03T11:08:15.877Z,23.45
2019-04-03T11:10:47.853Z,19.17
2019-04-03T11:13:20.245Z,24.18
2019-04-03T11:15:52.496Z,21.62
2019-04-03T11:18:24.635Z,18.65
2019-04-03T11:20:58.220Z,20.37
2019-04-03T11:23:40.526Z,16.50
2019-04-03T11:26:05.384Z,21.97
2019-04-03T11:28:38.400Z,20.43
2019-04-03T11:31:11.176Z,24.27
2019-04-03T11:33:45.933Z,21.77
2019-04-03T11:36:17.032Z,25.77
2019-04-03T11:38:50.181Z,21.10
2019-04-03T11:41:23.899Z,24.23
2019-04-03T11:43:56.368Z,19.40
2019-04-03T11:46:28.459Z,19.60
2019-04-03T11:49:01.117Z,21.57
2019-04-03T11:51:34.315Z,20.77
2019-04-03T11:54:07.896Z,24.23
2019-04-03T11:56:40.654Z,29.97
2019-04-03T11:59:12.803Z,22.70
2019-04-03T12:01:44.849Z,23.17
2019-04-03T12:04:16.982Z,26.63
2019-04-03T12:06:49.804Z,28.37
2019-04-03T12:09:23.034Z,28.67
2019-04-03T12:11:55.547Z,39.93
2019-04-03T12:14:28.112Z,24.63
2019-04-03T12:17:00.290Z,24.43
2019-04-03T12:19:32.663Z,23.07
2019-04-03T12:22:04.799Z,21.27
2019-04-03T12:24:36.790Z,25.63
2019-04-03T12:27:09.074Z,34.17
2019-04-03T12:29:41.181Z,29.77
2019-04-03T12:32:13.260Z,25.53
2019-04-03T12:34:45.243Z,20.97
2019-04-03T12:37:18.697Z,23.00
2019-04-03T12:39:51.015Z,20.90
2019-04-03T12:42:23.398Z,20.93
2019-04-03T12:44:55.907Z,24.57
2019-04-03T12:47:28.488Z,24.70
2019-04-03T12:50:00.989Z,27.57
2019-04-03T12:52:33.301Z,24.57
2019-04-03T12:55:06.140Z,18.80
2019-04-03T12:57:40.217Z,28.47
2019-04-03T13:00:13.914Z,23.73
2019-04-03T13:02:53.514Z,22.60
2019-04-03T13:05:25.705Z,27.33
2019-04-03T13:07:59.553Z,27.90
2019-04-03T13:10:41.341Z,27.07
2019-04-03T13:13:05.143Z,31.93
2019-04-03T13:15:38.092Z,33.70
2019-04-03T13:18:11.082Z,22.07
2019-04-03T13:20:43.068Z,21.80
2019-04-03T13:23:15.585Z,24.83
2019-04-03T13:25:47.852Z,27.00
2019-04-03T13:28:20.595Z,30.23
2019-04-03T13:30:53.119Z,31.57
2019-04-03T13:33:25.491Z,30.33
2019-04-03T13:35:57.426Z,36.40
2019-04-03T13:38:30.026Z,21.13
2019-04-03T13:41:04.677Z,21.90
2019-04-03T13:43:35.938Z,25.13
2019-04-03T13:46:08.075Z,25.93
2019-04-03T13:48:40.366Z,23.47
2019-04-03T13:51:12.962Z,27.97
2019-04-03T13:53:45.388Z,30.77
2019-04-03T13:56:17.521Z,27.93
2019-04-03T13:58:52.609Z,26.53
2019-04-03T14:01:27.642Z,31.20
2019-04-03T14:03:58.813Z,28.37
2019-04-03T14:06:31.050Z,21.40
2019-04-03T14:09:03.599Z,24.20
2019-04-03T14:11:36.023Z,30.53
2019-04-03T14:14:08.243Z,24.53
2019-04-03T14:16:40.695Z,37.60
2019-04-03T14:19:13.345Z,38.23
2019-04-03T14:21:47.406Z,21.80
2019-04-03T14:24:20.455Z,24.03
2019-04-03T14:26:52.751Z,39.23
2019-04-03T14:29:25.009Z,35.63
2019-04-03T14:31:57.193Z,37.53
2019-04-03T14:34:30.578Z,31.63
2019-04-03T14:37:03.059Z,43.77
2019-04-03T14:39:35.270Z,19.57
2019-04-03T14:42:08.245Z,25.20
2019-04-03T14:44:41.956Z,22.57
2019-04-03T14:47:14.464Z,20.67
2019-04-03T14:49:46.428Z,18.53
2019-04-03T14:52:18.608Z,18.70
2019-04-03T14:54:55.062Z,22.23
2019-04-03T14:57:26.902Z,17.37
2019-04-03T15:00:02.017Z,19.47
2019-04-03T15:02:32.771Z,21.87
2019-04-03T15:05:07.420Z,20.90
2019-04-03T15:07:39.234Z,24.37
2019-04-03T15:10:11.867Z,20.97
2019-04-03T15:12:45.904Z,22.57
2019-04-03T15:15:18.201Z,19.53
2019-04-03T15:17:51.079Z,24.77
2019-04-03T15:20:24.085Z,22.30
2019-04-03T15:22:56.471Z,23.17
2019-04-03T15:25:29.437Z,17.60
2019-04-03T15:28:01.830Z,22.97
2019-04-03T15:30:34.199Z,24.57
2019-04-03T15:33:06.923Z,22.37
2019-04-03T15:35:40.206Z,18.43
2019-04-03T15:38:13.479Z,21.90
2019-04-03T15:40:46.193Z,18.10
2019-04-03T15:43:18.349Z,18.57
2019-04-03T15:45:50.413Z,19.93
2019-04-03T15:48:22.864Z,21.83
2019-04-03T15:50:57.615Z,24.93
2019-04-03T15:53:30.283Z,20.97
2019-04-03T15:56:02.621Z,29.50
2019-04-03T15:58:34.646Z,38.50
2019-04-03T16:01:08.531Z,21.50
2019-04-03T16:03:41.344Z,20.53
2019-04-03T16:06:13.433Z,27.73
2019-04-03T16:08:47.442Z,76.03
2019-04-03T16:11:19.260Z,47.70
2019-04-03T16:13:51.342Z,38.37
2019-04-03T16:16:23.919Z,45.20
2019-04-03T16:18:57.277Z,26.10
2019-04-03T16:21:30.818Z,41.87
2019-04-03T16:24:02.963Z,62.40
2019-04-03T16:26:35.055Z,23.47
2019-04-03T16:29:08.721Z,26.33
2019-04-03T16:31:41.650Z,44.90
2019-04-03T16:34:13.779Z,31.40
2019-04-03T16:36:47.899Z,37.67
2019-04-03T16:39:20.807Z,35.00
2019-04-03T16:41:52.888Z,24.37
2019-04-03T16:44:26.283Z,27.67
2019-04-03T16:46:58.799Z,26.63
2019-04-03T16:49:31.440Z,25.03
2019-04-03T16:52:05.587Z,35.03
2019-04-03T16:54:37.635Z,31.33
2019-04-03T16:57:10.172Z,25.97
2019-04-03T16:59:42.602Z,22.63
2019-04-03T17:02:14.814Z,21.67
2019-04-03T17:04:47.002Z,25.13
2019-04-03T17:07:20.588Z,28.17
2019-04-03T17:09:52.820Z,34.13
2019-04-03T17:12:24.955Z,30.67
2019-04-03T17:14:57.088Z,34.97
2019-04-03T17:17:29.276Z,44.40
2019-04-03T17:20:01.227Z,37.13
2019-04-03T17:22:33.325Z,26.73
2019-04-03T17:25:06.024Z,26.23
2019-04-03T17:27:38.044Z,22.70
2019-04-03T17:30:11.334Z,24.47
2019-04-03T17:32:43.629Z,26.17
2019-04-03T17:35:16.308Z,26.93
2019-04-03T17:37:48.427Z,23.17
2019-04-03T17:40:20.748Z,26.17
2019-04-03T17:42:52.765Z,35.50
2019-04-03T17:45:24.801Z,32.10
2019-04-03T17:47:56.822Z,28.63
2019-04-03T17:50:29.688Z,27.57
2019-04-03T17:53:02.471Z,28.67
2019-04-03T17:55:34.736Z,32.70
2019-04-03T17:58:07.037Z,28.37
2019-04-03T18:00:39.119Z,29.77
2019-04-03T18:03:11.202Z,40.83
2019-04-03T18:05:43.149Z,33.00
2019-04-03T18:08:15.370Z,29.07
2019-04-03T18:10:47.534Z,40.23
2019-04-03T18:13:19.596Z,37.00
2019-04-03T18:15:51.683Z,35.03
2019-04-03T18:18:24.785Z,41.60
2019-04-03T18:20:57.067Z,39.90
2019-04-03T18:23:29.107Z,38.57
2019-04-03T18:26:01.975Z,34.20
2019-04-03T18:28:35.758Z,52.70
2019-04-03T18:31:07.848Z,43.07
2019-04-03T18:33:40.300Z,54.63
2019-04-03T18:36:12.443Z,57.40
2019-04-03T18:38:44.450Z,60.03
2019-04-03T18:41:16.859Z,40.83
2019-04-03T18:43:49.580Z,51.03
2019-04-03T18:46:31.607Z,44.03
2019-04-03T18:49:00.761Z,62.03
2019-04-03T18:51:29.290Z,43.70
2019-04-03T18:54:01.366Z,41.63
2019-04-03T18:56:35.475Z,58.20
2019-04-03T18:59:07.296Z,62.87
2019-04-03T19:01:39.344Z,74.83
2019-04-03T19:04:11.583Z,39.23
2019-04-03T19:06:44.727Z,49.03
2019-04-03T19:09:21.049Z,41.37
2019-04-03T19:11:51.675Z,40.83
2019-04-03T19:14:32.393Z,41.73
2019-04-03T19:16:57.553Z,35.70
2019-04-03T19:19:30.008Z,36.47
2019-04-03T19:22:02.217Z,39.13
2019-04-03T19:24:34.246Z,42.37
2019-04-03T19:27:06.371Z,33.30
2019-04-03T19:29:38.385Z,36.73
2019-04-03T19:32:12.242Z,34.83
2019-04-03T19:34:44.116Z,31.90
2019-04-03T19:37:16.042Z,33.63
2019-04-03T19:39:48.039Z,31.83
2019-04-03T19:42:20.403Z,31.03
2019-04-03T19:44:52.415Z,32.87
2019-04-03T19:47:24.662Z,33.43
2019-04-03T19:49:59.740Z,36.87
2019-04-03T19:52:30.947Z,35.67
2019-04-03T19:55:02.997Z,39.90
2019-04-03T19:57:34.958Z,36.47
2019-04-03T20:00:09.288Z,32.87
2019-04-03T20:02:43.050Z,35.07
2019-04-03T20:05:15.142Z,29.27
2019-04-03T20:07:47.106Z,31.27
2019-04-03T20:10:19.190Z,32.10
2019-04-03T20:12:51.263Z,29.73
2019-04-03T20:15:23.435Z,29.77
2019-04-03T20:17:55.491Z,28.73
2019-04-03T20:20:29.351Z,28.00
2019-04-03T20:23:01.182Z,29.27
2019-04-03T20:25:34.142Z,30.97
2019-04-03T20:28:06.208Z,30.60
2019-04-03T20:30:38.346Z,28.83
2019-04-03T20:33:11.812Z,31.60
2019-04-03T20:35:44.317Z,27.43
2019-04-03T20:38:16.312Z,36.97
2019-04-03T20:40:48.324Z,28.00
2019-04-03T20:43:20.671Z,36.70
2019-04-03T20:45:52.636Z,35.27
2019-04-03T20:48:27.991Z,31.13
2019-04-03T20:50:58.388Z,31.17
2019-04-03T20:53:30.798Z,36.47
2019-04-03T20:56:02.809Z,41.40
2019-04-03T20:58:34.808Z,35.33
2019-04-03T21:01:07.369Z,40.93
2019-04-03T21:03:39.510Z,39.10
2019-04-03T21:06:11.525Z,45.57
2019-04-03T21:08:43.487Z,38.97
2019-04-03T21:11:17.532Z,36.80
2019-04-03T21:13:49.916Z,39.43
2019-04-03T21:16:32.783Z,41.10
2019-04-03T21:18:55.584Z,58.97
2019-04-03T21:21:27.650Z,46.00
2019-04-03T21:24:00.246Z,42.10
2019-04-03T21:26:32.298Z,46.70
2019-04-03T21:29:04.377Z,54.20
2019-04-03T21:31:36.456Z,67.57
2019-04-03T21:34:08.465Z,69.33
2019-04-03T21:36:40.451Z,62.07
2019-04-03T21:39:12.886Z,65.33
2019-04-03T21:41:45.464Z,61.03
2019-04-03T21:44:17.468Z,62.10
2019-04-03T21:46:49.544Z,63.63
2019-04-03T21:49:21.563Z,65.03
2019-04-03T21:51:53.545Z,70.90
2019-04-03T21:54:26.864Z,85.47
2019-04-03T21:57:00.001Z,67.00
2019-04-03T21:59:32.117Z,72.70
2019-04-03T22:02:04.355Z,64.63
2019-04-03T22:04:36.649Z,67.50
2019-04-03T22:07:08.619Z,67.77
2019-04-03T22:09:40.956Z,66.83
2019-04-03T22:12:12.918Z,73.60
2019-04-03T22:14:44.935Z,72.83
2019-04-03T22:17:16.996Z,66.10
2019-04-03T22:19:49.294Z,79.43
2019-04-03T22:22:21.394Z,67.17
2019-04-03T22:24:53.477Z,78.80
2019-04-03T22:27:25.432Z,65.33
2019-04-03T22:29:57.503Z,66.67
2019-04-03T22:32:29.475Z,78.03
2019-04-03T22:35:01.609Z,72.87
2019-04-03T22:37:35.193Z,60.33
2019-04-03T22:40:09.924Z,55.67
2019-04-03T22:42:41.520Z,62.30
2019-04-03T22:45:13.608Z,53.03
2019-04-03T22:47:47.660Z,55.97
2019-04-03T22:50:20.477Z,54.33
2019-04-03T22:52:52.547Z,52.87
2019-04-03T22:55:24.499Z,49.77
2019-04-03T22:57:56.478Z,46.07
2019-04-03T23:00:28.943Z,40.47
2019-04-03T23:03:02.942Z,41.83
2019-04-03T23:05:35.292Z,37.67
2019-04-03T23:08:07.267Z,35.70
2019-04-03T23:10:39.294Z,31.77
2019-04-03T23:13:11.308Z,35.30
2019-04-03T23:15:43.398Z,36.97
2019-04-03T23:18:15.987Z,42.57
2019-04-03T23:20:48.557Z,41.20
2019-04-03T23:23:20.893Z,35.70
2019-04-03T23:25:52.889Z,38.17
2019-04-03T23:28:25.941Z,36.60
2019-04-03T23:30:57.955Z,36.37
2019-04-03T23:33:30.034Z,43.90
2019-04-03T23:36:04.169Z,43.63
2019-04-03T23:38:36.165Z,42.67
2019-04-03T23:41:08.245Z,42.37
2019-04-03T23:43:40.513Z,43.87
2019-04-03T23:46:12.763Z,48.47
2019-04-03T23:48:48.669Z,46.53
2019-04-03T23:51:23.384Z,46.27
2019-04-03T23:53:54.017Z,41.57
2019-04-03T23:56:25.954Z,50.00
2019-04-03T23:58:57.915Z,44.63
